createdAt,value
2022-10-22T00:01:15.905Z,24.20
2022-10-22T00:06:17.567Z,21.90
2022-10-22T00:11:20.245Z,29.15
2022-10-22T00:16:21.964Z,21.15
2022-10-22T00:21:23.975Z,31.02
2022-10-22T00:26:25.654Z,21.35
2022-10-22T00:31:27.824Z,25.17
2022-10-22T00:36:29.497Z,25.38
2022-10-22T00:41:31.161Z,25.52
2022-10-22T00:46:33.022Z,23.63
2022-10-22T00:51:35.817Z,23.10
2022-10-22T00:56:38.207Z,22.50
2022-10-22T01:01:39.878Z,23.10
2022-10-22T01:06:41.571Z,27.48
2022-10-22T01:12:20.233Z,30.10
2022-10-22T01:17:32.093Z,28.15
2022-10-22T01:22:44.462Z,27.67
2022-10-22T01:28:01.686Z,27.52
2022-10-22T01:33:06.987Z,29.23
2022-10-22T01:38:13.739Z,27.70
2022-10-22T01:43:15.460Z,27.25
2022-10-22T01:48:54.788Z,30.45
2022-10-22T01:54:34.262Z,31.83
2022-10-22T01:59:47.386Z,30.65
2022-10-22T02:04:55.705Z,32.05
2022-10-22T02:09:59.770Z,30.92
2022-10-22T02:15:03.332Z,36.90
2022-10-22T02:20:35.836Z,34.05
2022-10-22T02:25:40.937Z,31.50
2022-10-22T02:30:46.682Z,32.92
2022-10-22T02:35:49.949Z,28.63
2022-10-22T02:40:52.005Z,34.92
2022-10-22T02:45:53.672Z,34.13
2022-10-22T02:50:55.331Z,36.90
2022-10-22T02:55:57.034Z,33.53
2022-10-22T03:00:58.784Z,33.95
2022-10-22T03:06:00.719Z,37.05
2022-10-22T03:11:02.394Z,33.30
2022-10-22T03:16:04.231Z,30.00
2022-10-22T03:21:29.872Z,36.30
2022-10-22T03:26:32.661Z,45.13
2022-10-22T03:31:34.387Z,43.40
2022-10-22T03:36:36.060Z,37.38
2022-10-22T03:41:37.814Z,41.75
2022-10-22T03:46:39.485Z,39.38
2022-10-22T03:51:41.167Z,41.67
2022-10-22T03:56:42.872Z,39.03
2022-10-22T04:01:44.587Z,37.10
2022-10-22T04:06:46.250Z,38.88
2022-10-22T04:11:47.960Z,39.92
2022-10-22T04:16:49.808Z,37.80
2022-10-22T04:21:51.469Z,36.30
2022-10-22T04:26:56.266Z,37.28
2022-10-22T04:31:57.939Z,40.50
2022-10-22T04:36:59.662Z,38.88
2022-10-22T04:42:01.330Z,48.40
2022-10-22T04:47:02.996Z,44.00
2022-10-22T04:52:04.836Z,42.83
2022-10-22T04:57:06.538Z,44.25
2022-10-22T05:02:08.410Z,42.97
2022-10-22T05:07:10.083Z,50.78
2022-10-22T05:12:11.801Z,43.08
2022-10-22T05:17:13.508Z,50.42
2022-10-22T05:22:15.333Z,45.10
2022-10-22T05:27:17.011Z,41.67
2022-10-22T05:32:18.660Z,45.00
2022-10-22T05:37:20.368Z,40.20
2022-10-22T05:42:22.139Z,39.10
2022-10-22T05:47:23.858Z,38.33
2022-10-22T05:52:26.638Z,37.92
2022-10-22T05:57:28.291Z,42.92
2022-10-22T06:02:29.991Z,43.35
2022-10-22T06:07:33.346Z,46.50
2022-10-22T06:12:35.339Z,37.33
2022-10-22T06:17:37.071Z,38.35
2022-10-22T06:22:39.287Z,41.58
2022-10-22T06:27:41.222Z,43.55
2022-10-22T06:32:43.089Z,41.63
2022-10-22T06:37:44.900Z,34.90
2022-10-22T06:42:46.569Z,43.88
2022-10-22T06:47:49.051Z,36.53
2022-10-22T06:52:50.811Z,46.88
2022-10-22T06:57:52.513Z,40.53
2022-10-22T07:02:57.699Z,43.33
2022-10-22T07:08:00.932Z,36.92
2022-10-22T07:13:02.598Z,38.17
2022-10-22T07:18:04.826Z,38.70
2022-10-22T07:23:06.529Z,36.35
2022-10-22T07:28:08.383Z,38.55
2022-10-22T07:33:11.330Z,37.90
2022-10-22T07:38:13.163Z,43.95
2022-10-22T07:43:14.820Z,48.30
2022-10-22T07:48:16.910Z,37.08
2022-10-22T07:53:18.732Z,8.77
2022-10-22T07:58:21.652Z,4.90
2022-10-22T08:03:23.447Z,7.70
2022-10-22T08:08:27.202Z,3.47
2022-10-22T08:13:31.688Z,2.20
2022-10-22T08:18:33.380Z,2.63
2022-10-22T08:23:35.397Z,2.78
2022-10-22T08:28:37.253Z,2.20
2022-10-22T08:33:39.982Z,4.93
2022-10-22T08:38:41.705Z,2.88
2022-10-22T08:44:07.850Z,3.15
2022-10-22T08:49:17.917Z,3.63
2022-10-22T08:54:39.440Z,5.60
2022-10-22T08:59:51.396Z,29.15
2022-10-22T09:05:18.388Z,7.18
2022-10-22T09:10:24.559Z,4.93
2022-10-22T09:15:27.089Z,4.07
2022-10-22T09:20:34.448Z,8.15
2022-10-22T09:25:37.623Z,3.22
2022-10-22T09:30:40.049Z,3.20
2022-10-22T09:35:57.294Z,2.17
2022-10-22T09:41:01.260Z,1.80
2022-10-22T09:46:05.971Z,2.60
2022-10-22T09:51:36.355Z,1.63
2022-10-22T09:56:42.179Z,3.13
2022-10-22T10:01:47.427Z,1.60
2022-10-22T10:06:55.465Z,3.83
2022-10-22T10:12:36.329Z,2.78
2022-10-22T10:18:27.668Z,2.30
2022-10-22T10:23:43.028Z,1.70
2022-10-22T10:28:55.424Z,5.75
2022-10-22T10:34:12.085Z,1.40
2022-10-22T10:39:30.652Z,7.35
2022-10-22T10:44:53.373Z,6.18
2022-10-22T10:50:18.675Z,1.30
2022-10-22T10:56:27.946Z,1.30
2022-10-22T11:02:03.637Z,2.25
2022-10-22T11:07:22.835Z,1.75
2022-10-22T11:12:39.126Z,1.00
2022-10-22T11:17:46.309Z,0.80
2022-10-22T11:23:19.371Z,1.00
2022-10-22T11:28:32.435Z,1.30
2022-10-22T11:33:45.001Z,1.38
2022-10-22T11:38:46.914Z,3.08
2022-10-22T11:43:59.058Z,4.13
2022-10-22T11:49:23.311Z,2.83
2022-10-22T11:54:34.222Z,1.30
2022-10-22T11:59:44.669Z,2.33
2022-10-22T12:04:47.471Z,2.10
2022-10-22T12:14:57.810Z,2.63
2022-10-22T12:20:07.536Z,0.90
2022-10-22T12:25:34.820Z,1.75
2022-10-22T12:30:37.825Z,3.10
2022-10-22T12:35:45.120Z,1.10
2022-10-22T12:40:48.965Z,1.35
2022-10-22T12:45:51.838Z,0.85
2022-10-22T12:50:58.095Z,4.07
2022-10-22T12:56:02.686Z,2.58
2022-10-22T13:01:04.720Z,3.67
2022-10-22T13:06:18.422Z,1.30
2022-10-22T13:11:20.687Z,1.27
2022-10-22T13:16:25.862Z,4.13
2022-10-22T13:21:38.713Z,3.80
2022-10-22T13:26:40.405Z,3.67
2022-10-22T13:31:47.334Z,1.05
2022-10-22T13:36:49.178Z,1.95
2022-10-22T13:41:51.484Z,1.73
2022-10-22T13:46:53.180Z,1.23
2022-10-22T13:51:54.944Z,2.95
2022-10-22T13:56:56.644Z,1.23
2022-10-22T14:01:58.327Z,3.10
2022-10-22T14:07:03.703Z,1.25
2022-10-22T14:12:13.835Z,1.67
2022-10-22T14:17:16.977Z,1.25
2022-10-22T14:22:19.684Z,5.18
2022-10-22T14:27:21.364Z,1.77
2022-10-22T14:32:23.180Z,1.60
2022-10-22T14:37:25.362Z,2.72
2022-10-22T14:42:28.520Z,3.40
2022-10-22T14:47:30.210Z,1.85
2022-10-22T14:52:31.870Z,2.80
2022-10-22T14:57:33.540Z,1.38
2022-10-22T15:02:35.325Z,1.20
2022-10-22T15:07:37.879Z,4.47
2022-10-22T15:12:39.778Z,2.38
2022-10-22T15:17:41.628Z,1.45
2022-10-22T15:22:43.698Z,1.55
2022-10-22T15:27:50.330Z,4.85
2022-10-22T15:32:53.474Z,7.32
2022-10-22T15:37:55.144Z,3.83
2022-10-22T15:42:56.809Z,4.30
2022-10-22T15:47:58.788Z,3.33
2022-10-22T15:53:00.518Z,4.68
2022-10-22T15:58:04.171Z,3.22
2022-10-22T16:03:06.236Z,2.10
2022-10-22T16:08:07.900Z,9.18
2022-10-22T16:13:09.566Z,17.48
2022-10-22T16:18:11.230Z,5.93
2022-10-22T16:23:13.930Z,9.05
2022-10-22T16:28:15.936Z,2.45
2022-10-22T16:33:17.602Z,16.33
2022-10-22T16:38:19.261Z,5.53
2022-10-22T16:43:20.940Z,8.52
2022-10-22T16:48:22.601Z,10.68
2022-10-22T16:53:24.331Z,13.75
2022-10-22T16:58:26.159Z,7.63
2022-10-22T17:03:28.453Z,6.72
2022-10-22T17:08:37.566Z,11.02
2022-10-22T17:13:40.981Z,6.30
2022-10-22T17:23:56.565Z,6.38
2022-10-22T17:28:58.357Z,8.30
2022-10-22T17:34:00.268Z,5.90
2022-10-22T17:39:05.611Z,13.98
2022-10-22T17:44:09.352Z,24.38
2022-10-22T17:49:20.098Z,21.33
2022-10-22T17:54:21.838Z,11.45
2022-10-22T17:59:23.513Z,6.70
2022-10-22T18:04:25.222Z,8.38
2022-10-22T18:09:27.052Z,8.32
2022-10-22T18:14:28.723Z,7.95
2022-10-22T18:19:30.469Z,9.15
2022-10-22T18:24:32.142Z,7.63
2022-10-22T18:29:33.807Z,7.10
2022-10-22T18:34:37.404Z,14.50
2022-10-22T18:39:39.112Z,12.88
2022-10-22T18:44:40.805Z,7.78
2022-10-22T18:49:42.465Z,7.72
2022-10-22T18:54:44.182Z,7.72
2022-10-22T18:59:45.838Z,13.95
2022-10-22T19:04:47.552Z,7.78
2022-10-22T19:09:49.240Z,4.63
2022-10-22T19:14:51.853Z,4.72
2022-10-22T19:19:53.562Z,5.75
2022-10-22T19:24:55.295Z,4.70
2022-10-22T19:29:57.082Z,6.20
2022-10-22T19:34:59.069Z,9.32
2022-10-22T19:40:00.819Z,5.18
2022-10-22T19:45:03.298Z,11.20
2022-10-22T19:50:05.298Z,3.20
2022-10-22T19:55:07.199Z,5.30
2022-10-22T20:00:09.395Z,7.30
2022-10-22T20:05:11.566Z,8.23
2022-10-22T20:10:13.291Z,7.10
2022-10-22T20:15:17.010Z,6.35
2022-10-22T20:20:20.099Z,6.35
2022-10-22T20:25:23.629Z,3.80
2022-10-22T20:30:25.288Z,2.90
2022-10-22T20:35:27.009Z,5.03
2022-10-22T20:40:30.765Z,4.68
2022-10-22T20:45:32.453Z,8.20
2022-10-22T20:50:34.144Z,6.05
2022-10-22T20:55:35.859Z,5.50
2022-10-22T21:00:39.442Z,12.00
2022-10-22T21:05:41.481Z,4.43
2022-10-22T21:10:46.392Z,4.13
2022-10-22T21:15:48.155Z,3.08
2022-10-22T21:20:49.942Z,4.72
2022-10-22T21:25:56.385Z,9.63
2022-10-22T21:30:58.204Z,7.18
2022-10-22T21:35:59.882Z,6.82
2022-10-22T21:41:09.944Z,6.72
2022-10-22T21:46:15.545Z,10.02
2022-10-22T21:51:19.153Z,10.10
2022-10-22T21:56:32.362Z,17.65
2022-10-22T22:01:34.557Z,6.97
2022-10-22T22:06:36.415Z,17.20
2022-10-22T22:11:38.125Z,11.55
2022-10-22T22:16:40.366Z,11.05
2022-10-22T22:21:42.239Z,12.77
2022-10-22T22:26:43.944Z,9.95
2022-10-22T22:31:46.058Z,10.27
2022-10-22T22:36:49.519Z,9.90
2022-10-22T22:41:51.801Z,8.00
2022-10-22T22:46:53.466Z,13.00
2022-10-22T22:51:55.122Z,14.82
2022-10-22T22:56:56.831Z,15.98
2022-10-22T23:01:58.580Z,15.88
2022-10-22T23:07:00.269Z,16.75
2022-10-22T23:12:01.925Z,16.10
2022-10-22T23:17:03.683Z,9.32
2022-10-22T23:22:05.402Z,9.20
2022-10-22T23:27:07.074Z,15.77
2022-10-22T23:32:14.224Z,12.30
2022-10-22T23:37:15.920Z,10.60
2022-10-22T23:42:17.604Z,9.45
2022-10-22T23:47:19.420Z,12.50
2022-10-22T23:52:21.121Z,17.00
2022-10-22T23:57:23.142Z,16.42
